Airfield :
LOGIN :

Register | Disclaimer

   EN    FR    IT 

 










Legend :    VFR   Marginal VFR   IFR   Intensive IFR   Very Intensive IFR
Visi :
Ceiling :
>= 8 km
>= 3000ft
5 to 8 km
1000 to 3000 ft
1500m to 5 km
500 to 1000 ft
800 to 1500m
200 to 500 ft
< 800m
< 200 ft
Symbols :   Thunderstorms  Fog  Heavy snow  Heavy precipitations  Wind > 20 kt
SIGMETs :     Misc.  Thunderstorms  Icing  Turbulence  Mountain Waves  Volcanic Ashes






- Airport Elevation : 659 ft
- IATA code : LYN


LFLY - Lyon Bron

CURRENT METAR :
  • 231100Z AUTO 01007KT 320V040 CAVOK 12/04 Q1026 NOSIG

EXPIRED METARs :
  • 231030Z AUTO 01008KT 330V050 CAVOK 12/04 Q1026 NOSIG
  • 231000Z AUTO 36006KT 330V040 CAVOK 11/04 Q1026 NOSIG
  • 230930Z AUTO 01005KT 320V050 CAVOK 10/04 Q1026 NOSIG
  • 230900Z AUTO 02004KT 330V050 CAVOK 09/04 Q1026 NOSIG
  • 230830Z AUTO 01006KT 340V040 CAVOK 09/04 Q1026 NOSIG

TAF TAF LFLY
Valid from the 23 at 06:00 until the 24 at 06:00 UTC


230500Z 2306/2406 VRB02KT CAVOK
BECMG 2309/2311 36007KT
BECMG 2317/2319 VRB02KT
PROB30
TEMPO 2404/2406 4000 BR
ATIS : +33 4 72 15 87 96



MET'MAP, your aeronautical weather chart ! - Copyright ORBIFLY December 2007 - Disclaimer

ORBIFLY MET'MAP TEAM :

Programming & Development : Alexandra Zaïnal
Concept & original design : Baudouin d'Aumeries
Assistance for programming : Marc-Olivier Méhu
Technical & hardware support : Manuel Goepfert

Contact : metmap@orbifly.com




SOURCES & CREDITS :

   NOAA